Time;durP1;ratioP1;P1;durP2;ratioP2;P2;SDS_P1;SDS_P2;PMS_P1;PMS_P2;Temp;Humidity;BMP_temperature;BMP_pressure;BME280_temperature;BME280_humidity;BME280_pressure;Samples;Min_cycle;Max_cycle;Signal;HPM_P1;HPM_P2
2022/10/02 00:02:24;;;;;;;0.65;0.60;;;;;;;15.34;63.08;99310.62;4496018;31;34705;-64
2022/10/02 00:04:58;;;;;;;1.65;0.93;;;;;;;15.65;62.20;99317.44;4491481;31;35006;-64
2022/10/02 00:07:46;;;;;;;0.90;0.60;;;;;;;15.67;62.50;99324.41;4489153;31;33929;-64
2022/10/02 00:10:43;;;;;;;0.52;0.52;;;;;;;15.15;63.89;99324.25;4483419;31;33894;-64
2022/10/02 00:13:16;;;;;;;0.95;0.65;;;;;;;15.65;62.17;99323.69;4495523;31;31840;-64
2022/10/02 00:15:44;;;;;;;2.03;1.23;;;;;;;15.34;63.23;99332.22;4498987;31;35022;-64
2022/10/02 00:18:14;;;;;;;2.08;0.95;;;;;;;15.17;63.56;99337.59;4497959;31;33770;-64
2022/10/02 00:20:52;;;;;;;0.73;0.55;;;;;;;14.94;64.38;99343.44;4495742;31;34811;-65
2022/10/02 00:23:29;;;;;;;1.10;0.77;;;;;;;14.93;64.67;99341.75;4486217;31;33444;-64
2022/10/02 00:26:02;;;;;;;1.60;0.95;;;;;;;15.10;63.87;99343.59;4493035;31;33635;-64
2022/10/02 00:28:51;;;;;;;0.85;0.77;;;;;;;15.16;63.91;99344.00;4486307;31;33011;-65
2022/10/02 00:31:27;;;;;;;1.45;1.05;;;;;;;15.16;63.91;99349.38;4492408;31;34509;-64
2022/10/02 00:34:25;;;;;;;0.75;0.75;;;;;;;14.64;65.27;99356.25;4484011;31;31691;-65
2022/10/02 00:37:19;;;;;;;0.80;0.65;;;;;;;15.08;64.31;99350.97;4482502;31;33652;-64
2022/10/02 00:39:53;;;;;;;1.52;1.15;;;;;;;15.11;63.88;99360.63;4495795;31;33746;-65
2022/10/02 00:42:52;;;;;;;1.45;0.90;;;;;;;14.88;65.07;99365.59;4487486;31;33748;-64
2022/10/02 00:45:44;;;;;;;0.70;0.68;;;;;;;15.32;63.20;99365.72;4500168;31;33400;-65
2022/10/02 00:48:47;;;;;;;2.00;0.93;;;;;;;15.57;62.69;99364.09;4493839;31;34212;-65
2022/10/02 00:51:51;;;;;;;1.45;0.77;;;;;;;15.41;63.38;99366.63;4487068;31;34884;-65
2022/10/02 00:54:57;;;;;;;1.45;1.02;;;;;;;15.38;63.21;99368.66;4498877;31;33994;-65
2022/10/02 00:57:27;;;;;;;2.20;1.40;;;;;;;15.52;63.06;99366.41;4481883;31;33552;-65
2022/10/02 01:00:13;;;;;;;0.90;0.77;;;;;;;15.33;63.51;99353.91;4490507;31;36244;-65
2022/10/02 01:02:48;;;;;;;1.30;0.88;;;;;;;15.48;63.05;99354.22;4496592;31;33747;-64
2022/10/02 01:05:16;;;;;;;0.90;0.73;;;;;;;15.33;63.37;99364.72;4487242;31;34027;-64
2022/10/02 01:07:46;;;;;;;1.75;0.95;;;;;;;15.15;64.06;99362.00;4490322;31;32777;-64
2022/10/02 01:10:14;;;;;;;0.93;0.82;;;;;;;15.37;63.27;99363.38;4490440;31;32891;-65
2022/10/02 01:12:42;;;;;;;1.37;0.88;;;;;;;15.53;62.80;99363.53;4499671;31;34917;-65
2022/10/02 01:15:15;;;;;;;0.73;0.68;;;;;;;15.17;63.69;99369.94;4494987;31;34893;-64
2022/10/02 01:17:44;;;;;;;2.78;0.85;;;;;;;15.29;63.29;99368.72;4497754;31;34448;-64
2022/10/02 01:20:20;;;;;;;0.57;0.57;;;;;;;15.24;63.35;99374.56;4497701;31;35093;-65
2022/10/02 01:23:03;;;;;;;1.08;0.73;;;;;;;15.36;62.71;99384.13;4482981;31;32927;-64
2022/10/02 01:25:31;;;;;;;1.65;0.65;;;;;;;15.50;62.78;99390.81;4499675;31;34172;-64
2022/10/02 01:27:58;;;;;;;1.62;0.90;;;;;;;15.55;62.31;99388.50;4486183;31;33330;-65
2022/10/02 01:30:27;;;;;;;0.90;0.73;;;;;;;15.68;61.59;99382.75;4489242;31;34619;-67
2022/10/02 01:32:57;;;;;;;0.85;0.57;;;;;;;16.02;60.86;99401.75;4490936;31;35202;-65
2022/10/02 01:35:33;;;;;;;1.33;0.82;;;;;;;16.21;60.03;99402.53;4497905;31;33532;-65
2022/10/02 01:38:12;;;;;;;0.62;0.55;;;;;;;16.33;59.60;99414.75;4484516;31;33079;-67
2022/10/02 01:40:40;;;;;;;0.52;0.47;;;;;;;16.21;59.92;99414.19;4486112;31;35015;-67
2022/10/02 01:43:10;;;;;;;0.75;0.65;;;;;;;16.24;59.66;99415.69;4491095;31;33904;-64
2022/10/02 01:45:56;;;;;;;1.05;0.65;;;;;;;16.43;59.15;99409.22;4485857;31;35606;-65
2022/10/02 01:48:43;;;;;;;1.20;0.80;;;;;;;16.29;59.57;99424.19;4486929;31;34522;-65
2022/10/02 01:51:41;;;;;;;2.30;0.68;;;;;;;16.39;59.28;99438.41;4489885;31;34792;-64
2022/10/02 01:54:25;;;;;;;2.17;1.00;;;;;;;16.60;59.03;99434.50;4496494;31;35044;-64
2022/10/02 01:57:25;;;;;;;0.50;0.50;;;;;;;16.38;59.68;99450.25;4482746;31;33478;-64
2022/10/02 02:00:16;;;;;;;3.20;1.17;;;;;;;16.51;59.05;99457.91;4488971;31;33251;-65
2022/10/02 02:03:17;;;;;;;1.35;0.60;;;;;;;16.77;58.17;99469.56;4496034;31;35065;-65
2022/10/02 02:05:51;;;;;;;1.42;0.88;;;;;;;16.71;58.28;99462.06;4486320;31;33779;-66
2022/10/02 02:08:35;;;;;;;2.17;1.02;;;;;;;16.94;57.75;99467.78;4495145;31;32484;-65
2022/10/02 02:11:13;;;;;;;3.30;1.05;;;;;;;16.94;57.62;99470.50;4488945;31;33324;-65
2022/10/02 02:13:59;;;;;;;0.65;0.65;;;;;;;16.77;58.13;99474.97;4488625;31;33570;-64
2022/10/02 02:16:44;;;;;;;0.80;0.80;;;;;;;16.74;58.17;99477.97;4496896;31;34824;-64
2022/10/02 02:19:34;;;;;;;1.02;0.73;;;;;;;16.83;57.93;99478.91;4483897;31;33023;-65
2022/10/02 02:22:13;;;;;;;0.95;0.82;;;;;;;16.86;57.59;99478.59;4488200;31;33209;-65
2022/10/02 02:24:51;;;;;;;1.20;0.62;;;;;;;16.46;58.69;99476.44;4492384;31;34876;-65
2022/10/02 02:27:21;;;;;;;0.55;0.50;;;;;;;16.41;59.11;99485.03;4481954;31;35314;-64
2022/10/02 02:29:51;;;;;;;1.55;1.00;;;;;;;16.47;58.83;99487.09;4492243;31;33980;-64
2022/10/02 02:32:22;;;;;;;2.15;0.80;;;;;;;15.99;60.08;99474.94;4481927;31;31471;-65
2022/10/02 02:34:57;;;;;;;0.85;0.60;;;;;;;16.33;59.40;99493.06;4481163;31;36243;-64
2022/10/02 02:37:26;;;;;;;2.33;1.23;;;;;;;16.38;59.46;99488.06;4487872;31;34843;-64
2022/10/02 02:40:00;;;;;;;0.52;0.52;;;;;;;16.46;59.23;99489.94;4485400;31;34910;-64
2022/10/02 02:42:31;;;;;;;0.50;0.47;;;;;;;16.46;58.88;99480.00;4490917;31;33767;-64
2022/10/02 02:45:01;;;;;;;0.37;0.30;;;;;;;16.54;58.72;99487.31;4492610;31;32843;-65
2022/10/02 02:47:50;;;;;;;6.75;1.45;;;;;;;16.38;59.27;99493.47;4495293;31;35039;-66
2022/10/02 02:50:45;;;;;;;1.27;0.70;;;;;;;16.24;59.79;99499.41;4481142;31;33748;-65
2022/10/02 02:53:17;;;;;;;1.50;1.10;;;;;;;16.15;60.14;99497.69;4480064;31;33127;-65
2022/10/02 02:55:48;;;;;;;0.68;0.43;;;;;;;16.20;60.09;99500.75;4483734;31;32967;-64
2022/10/02 02:58:17;;;;;;;1.37;0.70;;;;;;;15.83;61.09;99504.47;4486081;31;33966;-65
2022/10/02 03:00:44;;;;;;;3.12;0.95;;;;;;;16.02;60.67;99503.47;4486163;31;32538;-66
2022/10/02 03:03:12;;;;;;;1.45;1.15;;;;;;;15.90;60.91;99505.56;4495421;31;32697;-65
2022/10/02 03:05:45;;;;;;;2.50;1.00;;;;;;;15.91;60.96;99509.09;4488927;31;34178;-64
2022/10/02 03:08:20;;;;;;;3.83;0.65;;;;;;;15.59;62.22;99513.97;4485500;31;34109;-64
2022/10/02 03:11:06;;;;;;;2.53;0.85;;;;;;;15.82;61.53;99510.84;4498466;31;33801;-65
2022/10/02 03:13:43;;;;;;;1.20;0.82;;;;;;;15.49;62.32;99515.03;4497098;31;34553;-65
2022/10/02 03:16:11;;;;;;;0.85;0.62;;;;;;;15.50;62.37;99522.13;4498597;31;34461;-64
2022/10/02 03:19:20;;;;;;;2.10;1.12;;;;;;;15.60;62.26;99531.00;4500361;31;33474;-64
2022/10/02 03:21:57;;;;;;;0.55;0.52;;;;;;;15.45;62.76;99517.19;4491459;31;33883;-64
2022/10/02 03:24:48;;;;;;;0.68;0.52;;;;;;;15.53;62.65;99524.53;4493289;31;33230;-65
2022/10/02 03:27:29;;;;;;;0.65;0.55;;;;;;;15.92;61.54;99525.16;4494788;31;34856;-65
2022/10/02 03:30:04;;;;;;;0.68;0.50;;;;;;;16.01;60.81;99532.28;4494090;31;34761;-65
2022/10/02 03:32:33;;;;;;;3.53;0.77;;;;;;;15.63;62.29;99540.66;4497087;31;33928;-65
2022/10/02 03:35:02;;;;;;;0.30;0.30;;;;;;;15.93;61.39;99540.34;4493285;31;33389;-65
2022/10/02 03:37:30;;;;;;;2.05;0.95;;;;;;;16.07;60.79;99545.19;4487448;31;33635;-65
2022/10/02 03:39:59;;;;;;;1.02;0.80;;;;;;;16.26;60.22;99549.56;4493056;31;33874;-65
2022/10/02 03:42:31;;;;;;;0.90;0.57;;;;;;;16.46;59.76;99544.81;4495041;31;33725;-65
2022/10/02 03:44:59;;;;;;;0.80;0.43;;;;;;;16.16;60.30;99553.38;4499481;31;32020;-65
2022/10/02 03:47:26;;;;;;;0.80;0.40;;;;;;;16.23;60.51;99557.97;4487213;31;33885;-65
2022/10/02 03:49:54;;;;;;;3.30;1.42;;;;;;;16.44;59.48;99552.25;4498371;31;32835;-65
2022/10/02 03:52:22;;;;;;;5.68;1.58;;;;;;;16.16;60.49;99559.59;4498596;31;32857;-66
2022/10/02 03:54:53;;;;;;;1.20;0.73;;;;;;;16.38;59.85;99570.94;4499181;31;33138;-65
2022/10/02 03:57:24;;;;;;;1.77;0.95;;;;;;;16.12;61.00;99568.19;4486237;31;33692;-64
2022/10/02 04:00:02;;;;;;;1.35;0.52;;;;;;;16.42;59.94;99565.06;4487438;31;34187;-65
2022/10/02 04:02:43;;;;;;;1.27;0.93;;;;;;;16.56;59.77;99565.50;4491109;31;34483;-65
2022/10/02 04:05:21;;;;;;;0.98;0.65;;;;;;;16.02;60.95;99568.25;4493715;31;31783;-64
2022/10/02 04:07:52;;;;;;;1.60;1.27;;;;;;;16.53;59.72;99567.53;4495652;31;33939;-65
2022/10/02 04:10:41;;;;;;;0.85;0.70;;;;;;;16.41;59.70;99566.06;4493810;31;34219;-64
2022/10/02 04:13:31;;;;;;;0.77;0.65;;;;;;;15.95;61.08;99567.16;4496929;31;32472;-65
2022/10/02 04:16:07;;;;;;;1.65;0.80;;;;;;;16.45;59.56;99570.16;4492715;31;34295;-64
2022/10/02 04:18:41;;;;;;;1.05;0.88;;;;;;;16.43;59.99;99579.41;4495189;31;33808;-64
2022/10/02 04:21:42;;;;;;;0.95;0.80;;;;;;;16.66;59.19;99586.03;4493007;31;33872;-65
2022/10/02 04:24:27;;;;;;;0.82;0.82;;;;;;;16.60;59.32;99580.41;4449139;31;34880;-65
2022/10/02 04:27:02;;;;;;;0.82;0.50;;;;;;;16.50;59.21;99586.75;4483404;31;33539;-64
2022/10/02 04:29:37;;;;;;;1.35;0.68;;;;;;;16.42;59.81;99588.53;4484567;31;33912;-66
2022/10/02 04:32:14;;;;;;;2.12;1.02;;;;;;;16.50;59.36;99596.69;4485217;31;33961;-64
2022/10/02 04:34:42;;;;;;;0.77;0.62;;;;;;;16.71;58.72;99594.50;4497085;31;33080;-64
2022/10/02 04:37:35;;;;;;;2.65;0.65;;;;;;;16.26;60.04;99600.03;4497384;31;33347;-65
2022/10/02 04:40:16;;;;;;;1.15;0.73;;;;;;;16.14;60.69;99598.56;4490841;31;34851;-64
2022/10/02 04:43:14;;;;;;;1.67;1.10;;;;;;;16.23;59.97;99614.69;4485485;31;32850;-66
2022/10/02 04:46:00;;;;;;;3.22;1.75;;;;;;;16.04;60.85;99625.63;4491629;31;33610;-65
2022/10/02 04:48:37;;;;;;;2.62;0.90;;;;;;;16.01;61.02;99628.63;4493471;31;34300;-65
2022/10/02 04:51:33;;;;;;;0.80;0.77;;;;;;;15.43;62.43;99629.75;4487072;31;33701;-65
2022/10/02 04:54:26;;;;;;;0.88;0.50;;;;;;;16.16;60.42;99635.22;4493855;31;34017;-66
2022/10/02 04:57:20;;;;;;;2.20;0.75;;;;;;;15.57;62.11;99642.78;4497266;31;34262;-64
2022/10/02 05:00:08;;;;;;;0.43;0.43;;;;;;;15.84;61.47;99657.28;4466029;31;33308;-65
2022/10/02 05:03:03;;;;;;;0.47;0.47;;;;;;;15.83;61.10;99653.75;4490900;31;33654;-64
2022/10/02 05:05:39;;;;;;;0.57;0.52;;;;;;;15.72;61.84;99656.63;4494190;31;35278;-64
2022/10/02 05:08:30;;;;;;;1.12;0.75;;;;;;;16.50;59.54;99659.69;4485948;31;34074;-63
2022/10/02 05:11:16;;;;;;;1.05;0.75;;;;;;;16.74;58.90;99667.16;4489854;31;34225;-62
2022/10/02 05:13:59;;;;;;;1.17;0.82;;;;;;;16.52;59.58;99673.03;4493828;31;34675;-62
2022/10/02 05:17:07;;;;;;;2.95;0.50;;;;;;;16.55;59.36;99678.12;4494878;31;35210;-62
2022/10/02 05:19:45;;;;;;;0.50;0.50;;;;;;;16.37;59.89;99678.12;4485971;31;33830;-64
2022/10/02 05:22:33;;;;;;;0.75;0.60;;;;;;;16.52;59.24;99681.97;4486544;31;33379;-63
2022/10/02 05:25:14;;;;;;;0.95;0.75;;;;;;;16.95;57.83;99668.69;4485754;31;33762;-65
2022/10/02 05:27:49;;;;;;;1.35;0.77;;;;;;;16.87;58.63;99677.59;4492262;31;34828;-64
2022/10/02 05:30:17;;;;;;;0.57;0.57;;;;;;;17.26;57.92;99677.19;4496912;31;32881;-63
2022/10/02 05:33:22;;;;;;;1.37;0.80;;;;;;;17.30;57.24;99677.72;4489956;31;34473;-62
2022/10/02 05:36:12;;;;;;;0.90;0.70;;;;;;;17.42;56.41;99681.84;4495053;31;34971;-61
2022/10/02 05:38:58;;;;;;;2.55;0.60;;;;;;;17.13;57.09;99676.78;4491731;31;34093;-61
2022/10/02 05:41:39;;;;;;;;;;;;;;;17.38;56.42;99675.91;4489912;31;34922;-61
2022/10/02 05:44:10;;;;;;;0.50;0.50;;;;;;;17.24;56.61;99679.22;4488714;31;33027;-62
2022/10/02 05:46:48;;;;;;;1.85;0.90;;;;;;;17.64;55.87;99688.56;4490813;31;32558;-61
2022/10/02 05:49:19;;;;;;;2.65;0.65;;;;;;;17.66;55.61;99695.53;4490373;31;33909;-61
2022/10/02 05:51:59;;;;;;;0.62;0.50;;;;;;;17.66;55.45;99690.13;4482495;31;31880;-61
2022/10/02 05:54:53;;;;;;;0.88;0.88;;;;;;;17.52;55.22;99697.97;4495803;31;33337;-61
2022/10/02 05:57:30;;;;;;;2.17;0.70;;;;;;;17.60;54.89;99700.75;4495424;31;33791;-61
2022/10/02 06:00:07;;;;;;;1.20;0.70;;;;;;;17.32;55.90;99700.91;4487012;31;33917;-61
2022/10/02 06:02:44;;;;;;;0.68;0.60;;;;;;;16.88;56.02;99706.31;4496511;31;33827;-62
2022/10/02 06:05:20;;;;;;;0.52;0.50;;;;;;;16.75;56.35;99712.13;4494972;31;33346;-61
2022/10/02 06:07:57;;;;;;;3.35;1.58;;;;;;;16.98;56.45;99706.22;4484729;31;33681;-62
2022/10/02 06:10:41;;;;;;;0.85;0.50;;;;;;;17.09;56.55;99719.50;4494329;31;34044;-61
2022/10/02 06:13:25;;;;;;;1.55;0.73;;;;;;;17.02;57.01;99720.31;4492672;31;33978;-61
2022/10/02 06:16:07;;;;;;;1.52;1.17;;;;;;;17.30;56.09;99726.41;4483102;31;32137;-61
2022/10/02 06:18:37;;;;;;;1.17;0.95;;;;;;;17.35;55.95;99724.94;4485711;31;34957;-61
2022/10/02 06:21:08;;;;;;;0.57;0.47;;;;;;;16.72;57.80;99728.59;4491082;31;35272;-61
2022/10/02 06:23:43;;;;;;;0.90;0.55;;;;;;;16.72;58.02;99727.75;4487140;31;33049;-62
2022/10/02 06:26:35;;;;;;;3.83;1.05;;;;;;;17.11;56.63;99741.84;4494496;31;33209;-62
2022/10/02 06:29:22;;;;;;;0.88;0.80;;;;;;;17.40;56.43;99735.28;4498971;31;34132;-62
2022/10/02 06:32:09;;;;;;;1.75;0.75;;;;;;;17.13;56.86;99747.06;4484393;31;33810;-62
2022/10/02 06:34:36;;;;;;;0.40;0.40;;;;;;;17.00;57.26;99755.59;4493776;31;34991;-61
2022/10/02 06:37:17;;;;;;;2.60;1.27;;;;;;;17.32;56.72;99752.31;4487747;31;33352;-61
2022/10/02 06:40:01;;;;;;;1.75;0.85;;;;;;;17.46;55.80;99751.75;4491106;31;34050;-62
2022/10/02 06:42:32;;;;;;;0.80;0.50;;;;;;;17.41;56.17;99758.63;4493803;31;34079;-61
2022/10/02 06:44:59;;;;;;;1.45;0.52;;;;;;;17.18;57.38;99761.00;4494844;31;32565;-61
2022/10/02 06:47:42;;;;;;;2.92;1.15;;;;;;;17.42;56.14;99763.03;4498720;31;31709;-62
2022/10/02 06:50:29;;;;;;;1.95;1.05;;;;;;;17.49;56.28;99763.22;4497460;31;32477;-62
2022/10/02 06:53:10;;;;;;;0.98;0.70;;;;;;;17.14;56.67;99774.00;4486043;31;33965;-61
2022/10/02 06:55:47;;;;;;;2.42;1.27;;;;;;;17.70;55.73;99782.66;4484530;31;33774;-62
2022/10/02 06:58:33;;;;;;;2.85;1.85;;;;;;;17.10;56.78;99780.69;4487361;31;33535;-62
2022/10/02 07:01:34;;;;;;;2.10;0.75;;;;;;;16.50;59.53;99788.50;4495330;31;33807;-62
2022/10/02 07:04:28;;;;;;;2.92;1.15;;;;;;;17.08;57.83;99792.66;4495108;31;35239;-62
2022/10/02 07:07:14;;;;;;;2.50;1.20;;;;;;;16.76;58.04;99789.50;4486561;31;34246;-62
2022/10/02 07:10:08;;;;;;;2.00;1.35;;;;;;;17.46;56.35;99802.28;4497057;31;31978;-62
2022/10/02 07:12:52;;;;;;;3.17;1.25;;;;;;;17.64;55.97;99813.91;4496938;31;33901;-62
2022/10/02 07:15:24;;;;;;;1.23;0.80;;;;;;;17.58;56.26;99811.84;4489507;31;35145;-62
2022/10/02 07:18:18;;;;;;;1.52;0.85;;;;;;;17.84;55.68;99811.03;4498337;31;32575;-62
2022/10/02 07:20:58;;;;;;;1.35;0.90;;;;;;;17.68;57.30;99811.75;4497057;31;34656;-62
2022/10/02 07:23:28;;;;;;;1.58;0.90;;;;;;;17.45;56.39;99811.41;4494633;31;33961;-62
2022/10/02 07:26:18;;;;;;;1.27;1.00;;;;;;;17.63;55.62;99809.53;4498456;31;34944;-62
2022/10/02 07:28:49;;;;;;;3.25;1.15;;;;;;;17.40;55.59;99803.78;4495713;31;34994;-61
2022/10/02 07:31:35;;;;;;;0.93;0.85;;;;;;;17.51;56.10;99808.06;4497157;31;33247;-62
2022/10/02 07:34:12;;;;;;;2.15;1.95;;;;;;;17.23;57.65;99810.87;4496425;31;35078;-62
2022/10/02 07:37:05;;;;;;;5.82;0.90;;;;;;;17.39;57.56;99814.75;4490060;31;32837;-62
2022/10/02 07:39:53;;;;;;;1.55;0.73;;;;;;;17.50;56.28;99814.50;4488199;31;33835;-63
2022/10/02 07:42:30;;;;;;;0.45;0.40;;;;;;;17.18;56.72;99817.78;4486046;31;33305;-61
2022/10/02 07:45:15;;;;;;;3.00;1.15;;;;;;;17.72;54.68;99817.69;4495307;31;33768;-62
2022/10/02 07:48:11;;;;;;;5.12;1.00;;;;;;;17.94;54.45;99814.47;4491725;31;33882;-62
2022/10/02 07:51:00;;;;;;;6.80;1.50;;;;;;;17.57;54.75;99815.56;4497529;31;33908;-62
2022/10/02 07:53:47;;;;;;;1.20;0.85;;;;;;;17.42;55.41;99817.13;4500732;31;31891;-62
2022/10/02 07:56:19;;;;;;;2.17;0.75;;;;;;;17.89;54.73;99822.25;4494943;31;33797;-62
2022/10/02 07:58:54;;;;;;;4.53;0.93;;;;;;;18.24;53.99;99821.25;4494742;31;34082;-60
2022/10/02 08:01:28;;;;;;;3.00;1.10;;;;;;;18.19;54.19;99828.16;4486079;31;34852;-63
2022/10/02 08:03:59;;;;;;;1.65;1.02;;;;;;;18.33;53.79;99827.53;4496232;31;33560;-63
2022/10/02 08:06:26;;;;;;;3.25;0.95;;;;;;;18.28;52.87;99838.88;4485328;31;33257;-64
2022/10/02 08:09:09;;;;;;;3.05;1.10;;;;;;;17.99;52.57;99838.38;4488715;31;32818;-63
2022/10/02 08:11:43;;;;;;;2.35;1.05;;;;;;;18.02;52.96;99840.78;4494887;31;32724;-65
2022/10/02 08:14:37;;;;;;;2.92;1.12;;;;;;;18.02;52.73;99841.63;4496026;31;33317;-64
2022/10/02 08:17:26;;;;;;;1.75;0.90;;;;;;;17.98;52.84;99837.53;4490144;31;34003;-63
2022/10/02 08:19:57;;;;;;;1.65;0.68;;;;;;;17.30;55.12;99848.13;4490329;31;34071;-63
2022/10/02 08:22:35;;;;;;;1.20;0.62;;;;;;;17.55;54.37;99832.97;4483335;31;33735;-63
2022/10/02 08:25:17;;;;;;;1.58;0.93;;;;;;;17.83;54.74;99837.25;4496960;31;33180;-64
2022/10/02 08:28:02;;;;;;;2.00;1.00;;;;;;;17.99;54.09;99835.66;4492824;31;33961;-64
2022/10/02 08:30:29;;;;;;;1.80;1.12;;;;;;;17.37;55.32;99843.81;4489433;31;34387;-63
2022/10/02 08:32:57;;;;;;;3.80;1.17;;;;;;;17.46;55.04;99849.16;4499784;31;33715;-63
2022/10/02 08:36:01;;;;;;;3.10;1.25;;;;;;;17.65;55.65;99852.66;4494896;31;34316;-64
2022/10/02 08:38:36;;;;;;;2.10;0.93;;;;;;;17.41;55.02;99854.16;4494098;31;32907;-63
2022/10/02 08:41:24;;;;;;;1.48;0.82;;;;;;;17.49;54.11;99855.22;4496205;31;32683;-64
2022/10/02 08:44:30;;;;;;;1.15;0.62;;;;;;;17.34;54.01;99844.97;4493948;31;34019;-63
2022/10/02 08:47:21;;;;;;;1.50;0.90;;;;;;;17.46;53.69;99856.37;4493050;31;34367;-63
2022/10/02 08:50:19;;;;;;;2.12;1.05;;;;;;;17.77;52.67;99848.72;4497645;31;32370;-63
2022/10/02 08:52:52;;;;;;;2.05;0.62;;;;;;;17.87;52.07;99849.47;4483321;31;33643;-64
2022/10/02 08:55:46;;;;;;;2.50;0.95;;;;;;;18.18;52.06;99854.41;4487249;31;34077;-63
2022/10/02 08:58:54;;;;;;;2.50;0.73;;;;;;;17.80;53.03;99855.69;4492233;31;33634;-64
2022/10/02 09:01:40;;;;;;;1.42;0.75;;;;;;;17.92;51.94;99857.13;4480848;31;33408;-63
2022/10/02 09:04:39;;;;;;;1.45;0.62;;;;;;;17.98;51.61;99852.91;4491363;31;34062;-61
2022/10/02 09:07:16;;;;;;;0.65;0.50;;;;;;;18.05;51.30;99846.72;4486656;31;34855;-64
2022/10/02 09:09:57;;;;;;;3.25;0.80;;;;;;;18.53;51.07;99849.84;4492238;31;34138;-62
2022/10/02 09:12:52;;;;;;;5.53;0.93;;;;;;;18.48;52.07;99847.59;4482296;31;33606;-65
2022/10/02 09:15:26;;;;;;;3.62;1.17;;;;;;;17.43;54.22;99852.16;4489758;31;34195;-62
2022/10/02 09:18:14;;;;;;;7.05;0.65;;;;;;;18.08;52.24;99854.53;4484292;31;33949;-62
2022/10/02 09:21:25;;;;;;;2.72;0.88;;;;;;;18.30;50.62;99853.12;4488403;31;33502;-61
2022/10/02 09:24:23;;;;;;;2.65;0.95;;;;;;;18.43;50.11;99854.53;4493456;31;35145;-61
2022/10/02 09:27:13;;;;;;;1.65;0.73;;;;;;;18.33;51.27;99855.50;4495061;31;35141;-62
2022/10/02 09:29:57;;;;;;;2.40;0.90;;;;;;;17.72;52.19;99861.88;4498194;31;32486;-61
2022/10/02 09:32:46;;;;;;;7.18;0.85;;;;;;;17.59;51.17;99856.00;4492440;31;33030;-61
2022/10/02 09:35:42;;;;;;;1.90;0.82;;;;;;;17.38;52.51;99837.41;4492245;31;34932;-61
2022/10/02 09:38:47;;;;;;;2.13;0.80;;;;;;;17.99;50.12;99844.66;4490975;31;34954;-61
2022/10/02 09:41:40;;;;;;;11.50;1.17;;;;;;;18.20;50.59;99840.69;4495117;31;33614;-62
2022/10/02 09:44:19;;;;;;;0.90;0.57;;;;;;;17.85;50.13;99837.12;4492572;31;32959;-61
2022/10/02 09:46:54;;;;;;;1.45;0.65;;;;;;;18.20;49.81;99827.97;4493968;31;33765;-61
2022/10/02 09:49:42;;;;;;;1.42;0.65;;;;;;;18.38;49.31;99826.03;4488358;31;34645;-62
2022/10/02 09:52:38;;;;;;;2.80;0.95;;;;;;;18.00;48.89;99826.53;4487380;31;34450;-61
2022/10/02 09:55:41;;;;;;;0.52;0.52;;;;;;;18.15;49.20;99822.22;4485143;31;33431;-62
2022/10/02 09:58:37;;;;;;;2.72;1.12;;;;;;;18.30;48.44;99830.59;4493941;31;34700;-61
2022/10/02 10:01:24;;;;;;;3.33;1.02;;;;;;;18.37;46.94;99826.22;4486300;31;35246;-61
2022/10/02 10:04:22;;;;;;;1.45;0.65;;;;;;;17.56;49.09;99832.81;4485321;31;33939;-61
2022/10/02 10:07:26;;;;;;;5.12;1.02;;;;;;;18.22;48.55;99819.72;4496009;31;31891;-62
2022/10/02 10:10:20;;;;;;;4.25;1.17;;;;;;;18.71;46.66;99807.19;4481220;31;32787;-61
2022/10/02 10:13:25;;;;;;;6.05;1.37;;;;;;;18.95;46.92;99808.28;4496291;31;35073;-61
2022/10/02 10:16:14;;;;;;;3.25;1.08;;;;;;;18.72;49.06;99806.22;4492264;31;34583;-62
2022/10/02 10:19:06;;;;;;;1.90;0.77;;;;;;;18.74;46.97;99806.88;4495647;31;33190;-62
2022/10/02 10:22:02;;;;;;;3.53;0.93;;;;;;;18.76;45.91;99812.16;4484222;31;32217;-61
2022/10/02 10:24:38;;;;;;;2.08;0.90;;;;;;;18.63;46.31;99805.31;4488404;31;34961;-61
2022/10/02 10:27:28;;;;;;;1.08;0.50;;;;;;;18.78;46.68;99801.97;4491725;31;34762;-61
2022/10/02 10:30:37;;;;;;;0.85;0.57;;;;;;;18.79;46.04;99796.41;4493792;31;33432;-62
2022/10/02 10:33:36;;;;;;;2.37;0.93;;;;;;;18.99;44.72;99799.66;4489671;31;32401;-61
2022/10/02 10:36:03;;;;;;;0.80;0.55;;;;;;;18.74;45.39;99800.59;4486522;31;33610;-62
2022/10/02 10:39:16;;;;;;;2.05;0.60;;;;;;;18.96;46.77;99793.72;4496641;31;33829;-62
2022/10/02 10:42:16;;;;;;;3.35;0.70;;;;;;;19.26;46.55;99806.62;4493016;31;35631;-62
2022/10/02 10:45:11;;;;;;;1.48;0.65;;;;;;;19.03;47.24;99800.16;4485768;31;33990;-62
2022/10/02 10:48:10;;;;;;;4.35;1.58;;;;;;;18.94;46.46;99796.59;4483278;31;33772;-62
2022/10/02 10:50:47;;;;;;;1.67;0.95;;;;;;;19.19;47.01;99791.19;4487980;31;35138;-61
2022/10/02 10:53:33;;;;;;;15.75;1.45;;;;;;;18.69;47.51;99803.81;4479431;31;32879;-61
2022/10/02 10:56:35;;;;;;;4.22;1.12;;;;;;;18.83;46.58;99802.31;4489998;31;33566;-61
2022/10/02 10:59:05;;;;;;;3.53;1.08;;;;;;;18.81;47.32;99799.81;4484881;31;35050;-61
2022/10/02 11:01:38;;;;;;;5.18;1.05;;;;;;;18.74;46.43;99798.75;4490655;31;33885;-61
2022/10/02 11:04:51;;;;;;;5.33;1.33;;;;;;;18.51;46.71;99803.06;4486847;31;34290;-61
2022/10/02 11:07:29;;;;;;;3.30;1.35;;;;;;;18.35;47.62;99796.56;4489819;31;34007;-61
2022/10/02 11:10:15;;;;;;;2.35;1.45;;;;;;;18.34;47.73;99805.72;4490962;31;32661;-61
2022/10/02 11:12:55;;;;;;;3.10;1.60;;;;;;;18.21;47.87;99808.03;4495760;31;34038;-61
2022/10/02 11:15:54;;;;;;;2.28;1.23;;;;;;;18.77;47.47;99817.41;4498265;31;34219;-62
2022/10/02 11:18:39;;;;;;;2.40;0.60;;;;;;;18.84;47.32;99815.75;4489936;31;35038;-61
2022/10/02 11:21:17;;;;;;;5.05;1.30;;;;;;;18.75;47.76;99810.47;4490568;31;35244;-62
2022/10/02 11:24:10;;;;;;;2.53;0.95;;;;;;;18.55;47.69;99804.41;4484780;31;34897;-62
2022/10/02 11:26:49;;;;;;;7.28;1.50;;;;;;;18.19;48.17;99803.78;4497784;31;32319;-61
2022/10/02 11:29:41;;;;;;;3.10;0.98;;;;;;;18.89;47.39;99807.09;4487018;31;33689;-62
2022/10/02 11:32:21;;;;;;;1.55;0.65;;;;;;;18.98;47.54;99800.66;4491953;31;32410;-61
2022/10/02 11:34:56;;;;;;;2.08;0.93;;;;;;;18.58;48.59;99798.66;4490987;31;32867;-61
2022/10/02 11:37:42;;;;;;;5.78;1.33;;;;;;;18.76;47.22;99780.47;4496295;31;33287;-61
2022/10/02 11:40:34;;;;;;;3.00;1.10;;;;;;;18.70;47.93;99789.22;4497771;31;32640;-63
2022/10/02 11:43:29;;;;;;;1.55;0.68;;;;;;;18.72;48.26;99776.41;4495460;31;33894;-63
2022/10/02 11:46:21;;;;;;;0.63;0.40;;;;;;;18.53;48.87;99773.94;4497670;31;34230;-64
2022/10/02 11:49:23;;;;;;;2.70;1.23;;;;;;;18.69;48.79;99778.56;4494850;31;34549;-63
2022/10/02 11:51:57;;;;;;;1.08;0.62;;;;;;;18.76;48.97;99779.63;4490663;31;33822;-63
2022/10/02 11:54:49;;;;;;;1.12;0.57;;;;;;;19.12;48.31;99772.03;4498461;31;32916;-62
2022/10/02 11:57:16;;;;;;;3.40;1.10;;;;;;;19.03;49.85;99779.28;4493490;31;34676;-64
2022/10/02 12:00:03;;;;;;;1.55;0.80;;;;;;;19.04;49.94;99780.16;4495304;31;33114;-64
2022/10/02 12:02:51;;;;;;;3.33;1.15;;;;;;;19.38;49.62;99777.28;4489719;31;34981;-64
2022/10/02 12:05:37;;;;;;;4.20;1.30;;;;;;;19.21;50.39;99781.84;4490362;31;33887;-65
2022/10/02 12:08:50;;;;;;;2.80;0.93;;;;;;;19.34;49.82;99796.78;4491179;31;34063;-63
2022/10/02 12:11:47;;;;;;;2.80;0.62;;;;;;;19.04;50.38;99791.03;4472891;31;32807;-64
2022/10/02 12:14:36;;;;;;;2.90;1.23;;;;;;;18.65;51.73;99793.44;4480046;31;32582;-64
2022/10/02 12:17:10;;;;;;;1.08;0.65;;;;;;;19.10;50.94;99795.78;4497222;31;34066;-64
2022/10/02 12:26:57;;;;;;;0.85;0.57;;;;;;;19.15;50.96;99789.84;4494918;31;34618;-64
2022/10/02 12:28:45;;;;;;;3.75;1.20;;;;;;;18.84;51.64;99766.94;4489309;31;33950;-64
2022/10/02 12:31:50;;;;;;;0.30;0.30;;;;;;;18.69;52.42;99762.28;4489428;31;32809;-63
2022/10/02 12:34:27;;;;;;;1.23;0.80;;;;;;;18.72;52.22;99757.41;4492152;31;32148;-64
2022/10/02 12:37:04;;;;;;;0.90;0.62;;;;;;;19.26;51.60;99755.06;4481039;31;194492;-64
2022/10/02 12:39:55;;;;;;;3.60;0.68;;;;;;;19.13;51.88;99749.28;4484988;31;36310;-64
2022/10/02 12:42:48;;;;;;;2.70;1.23;;;;;;;19.06;52.73;99749.13;4490891;31;32673;-65
2022/10/02 12:45:57;;;;;;;1.58;0.50;;;;;;;19.50;51.69;99737.91;4487106;31;34671;-64
2022/10/02 12:48:45;;;;;;;0.70;0.50;;;;;;;19.26;51.36;99746.06;4478224;31;33566;-65
2022/10/02 12:51:23;;;;;;;3.20;0.85;;;;;;;19.04;52.94;99740.31;4494963;31;35191;-64
2022/10/02 12:54:16;;;;;;;2.33;0.62;;;;;;;19.34;52.23;99726.22;4492981;31;32472;-64
2022/10/02 12:57:50;;;;;;;0.95;0.65;;;;;;;19.35;51.90;99726.03;4488142;31;34478;-64